sensor_id;sensor_type;location;lat;lon;timestamp;P1;durP1;ratioP1;P2;durP2;ratioP2
23745;SDS011;12053;48.878;9.632;2023-03-23T00:01:14;2.50;;;1.30;;
23745;SDS011;12053;48.878;9.632;2023-03-23T00:03:45;3.72;;;1.30;;
23745;SDS011;12053;48.878;9.632;2023-03-23T00:06:11;2.80;;;1.48;;
23745;SDS011;12053;48.878;9.632;2023-03-23T00:08:42;3.30;;;1.45;;
23745;SDS011;12053;48.878;9.632;2023-03-23T00:11:15;1.23;;;1.10;;
23745;SDS011;12053;48.878;9.632;2023-03-23T00:13:43;1.33;;;1.20;;
23745;SDS011;12053;48.878;9.632;2023-03-23T00:16:11;1.40;;;1.20;;
23745;SDS011;12053;48.878;9.632;2023-03-23T00:21:09;2.03;;;1.33;;
23745;SDS011;12053;48.878;9.632;2023-03-23T00:23:35;1.55;;;1.20;;
23745;SDS011;12053;48.878;9.632;2023-03-23T00:26:01;3.45;;;1.38;;
23745;SDS011;12053;48.878;9.632;2023-03-23T00:28:29;2.20;;;1.38;;
23745;SDS011;12053;48.878;9.632;2023-03-23T00:30:56;2.35;;;1.58;;
23745;SDS011;12053;48.878;9.632;2023-03-23T00:33:23;1.60;;;1.13;;
23745;SDS011;12053;48.878;9.632;2023-03-23T00:35:49;2.50;;;1.20;;
23745;SDS011;12053;48.878;9.632;2023-03-23T00:38:18;1.45;;;1.27;;
23745;SDS011;12053;48.878;9.632;2023-03-23T00:40:44;4.00;;;1.85;;
23745;SDS011;12053;48.878;9.632;2023-03-23T00:43:12;3.00;;;1.30;;
23745;SDS011;12053;48.878;9.632;2023-03-23T00:45:39;1.58;;;1.27;;
23745;SDS011;12053;48.878;9.632;2023-03-23T00:48:05;2.85;;;1.70;;
23745;SDS011;12053;48.878;9.632;2023-03-23T00:50:31;3.33;;;1.48;;
23745;SDS011;12053;48.878;9.632;2023-03-23T00:52:58;1.30;;;1.10;;
23745;SDS011;12053;48.878;9.632;2023-03-23T00:55:24;1.70;;;1.27;;
23745;SDS011;12053;48.878;9.632;2023-03-23T00:57:51;2.42;;;1.23;;
23745;SDS011;12053;48.878;9.632;2023-03-23T01:00:17;2.00;;;1.30;;
23745;SDS011;12053;48.878;9.632;2023-03-23T01:02:44;1.38;;;1.27;;
23745;SDS011;12053;48.878;9.632;2023-03-23T01:05:11;2.17;;;1.40;;
23745;SDS011;12053;48.878;9.632;2023-03-23T01:07:37;1.67;;;1.00;;
23745;SDS011;12053;48.878;9.632;2023-03-23T01:10:03;1.60;;;1.50;;
23745;SDS011;12053;48.878;9.632;2023-03-23T01:12:29;2.17;;;1.40;;
23745;SDS011;12053;48.878;9.632;2023-03-23T01:14:56;3.75;;;1.48;;
23745;SDS011;12053;48.878;9.632;2023-03-23T01:17:22;2.75;;;1.20;;
23745;SDS011;12053;48.878;9.632;2023-03-23T01:19:48;1.55;;;1.27;;
23745;SDS011;12053;48.878;9.632;2023-03-23T01:22:14;4.00;;;1.20;;
23745;SDS011;12053;48.878;9.632;2023-03-23T01:24:40;4.78;;;1.40;;
23745;SDS011;12053;48.878;9.632;2023-03-23T01:27:06;2.70;;;1.40;;
23745;SDS011;12053;48.878;9.632;2023-03-23T01:29:33;1.52;;;1.08;;
23745;SDS011;12053;48.878;9.632;2023-03-23T01:31:59;2.17;;;1.45;;
23745;SDS011;12053;48.878;9.632;2023-03-23T01:34:25;2.58;;;1.30;;
23745;SDS011;12053;48.878;9.632;2023-03-23T01:36:51;2.17;;;1.27;;
23745;SDS011;12053;48.878;9.632;2023-03-23T01:39:17;3.20;;;1.40;;
23745;SDS011;12053;48.878;9.632;2023-03-23T01:41:43;1.77;;;1.30;;
23745;SDS011;12053;48.878;9.632;2023-03-23T01:46:42;2.35;;;1.33;;
23745;SDS011;12053;48.878;9.632;2023-03-23T01:49:10;2.50;;;1.60;;
23745;SDS011;12053;48.878;9.632;2023-03-23T01:51:37;1.73;;;1.50;;
23745;SDS011;12053;48.878;9.632;2023-03-23T01:54:06;1.45;;;1.35;;
23745;SDS011;12053;48.878;9.632;2023-03-23T01:56:45;3.55;;;1.45;;
23745;SDS011;12053;48.878;9.632;2023-03-23T01:59:12;2.88;;;1.33;;
23745;SDS011;12053;48.878;9.632;2023-03-23T02:01:39;2.17;;;1.38;;
23745;SDS011;12053;48.878;9.632;2023-03-23T02:04:11;4.00;;;1.48;;
23745;SDS011;12053;48.878;9.632;2023-03-23T02:06:38;1.70;;;1.23;;
23745;SDS011;12053;48.878;9.632;2023-03-23T02:09:04;1.77;;;1.40;;
23745;SDS011;12053;48.878;9.632;2023-03-23T02:11:31;2.28;;;1.50;;
23745;SDS011;12053;48.878;9.632;2023-03-23T02:13:58;1.52;;;1.20;;
23745;SDS011;12053;48.878;9.632;2023-03-23T02:29:37;2.03;;;1.50;;
23745;SDS011;12053;48.878;9.632;2023-03-23T02:37:11;1.48;;;1.35;;
23745;SDS011;12053;48.878;9.632;2023-03-23T02:39:41;2.38;;;1.30;;
23745;SDS011;12053;48.878;9.632;2023-03-23T02:42:10;2.33;;;1.50;;
23745;SDS011;12053;48.878;9.632;2023-03-23T02:44:38;4.35;;;1.60;;
23745;SDS011;12053;48.878;9.632;2023-03-23T02:47:06;2.42;;;1.48;;
23745;SDS011;12053;48.878;9.632;2023-03-23T02:49:34;1.67;;;1.23;;
23745;SDS011;12053;48.878;9.632;2023-03-23T02:52:04;1.27;;;1.17;;
23745;SDS011;12053;48.878;9.632;2023-03-23T02:54:31;3.03;;;1.40;;
23745;SDS011;12053;48.878;9.632;2023-03-23T02:56:57;1.65;;;1.40;;
23745;SDS011;12053;48.878;9.632;2023-03-23T02:59:23;2.40;;;1.30;;
23745;SDS011;12053;48.878;9.632;2023-03-23T03:01:57;2.55;;;1.70;;
23745;SDS011;12053;48.878;9.632;2023-03-23T03:04:26;1.65;;;1.20;;
23745;SDS011;12053;48.878;9.632;2023-03-23T03:06:57;1.55;;;1.40;;
23745;SDS011;12053;48.878;9.632;2023-03-23T03:12:18;4.72;;;1.77;;
23745;SDS011;12053;48.878;9.632;2023-03-23T03:14:51;1.95;;;1.50;;
23745;SDS011;12053;48.878;9.632;2023-03-23T03:17:22;2.35;;;1.70;;
23745;SDS011;12053;48.878;9.632;2023-03-23T03:19:50;7.07;;;1.75;;
23745;SDS011;12053;48.878;9.632;2023-03-23T03:22:18;2.63;;;1.70;;
23745;SDS011;12053;48.878;9.632;2023-03-23T03:24:46;3.80;;;1.70;;
23745;SDS011;12053;48.878;9.632;2023-03-23T03:27:14;1.80;;;1.40;;
23745;SDS011;12053;48.878;9.632;2023-03-23T03:29:42;5.03;;;1.55;;
23745;SDS011;12053;48.878;9.632;2023-03-23T03:32:11;2.45;;;1.70;;
23745;SDS011;12053;48.878;9.632;2023-03-23T03:34:38;2.88;;;1.90;;
23745;SDS011;12053;48.878;9.632;2023-03-23T03:37:05;1.50;;;1.40;;
23745;SDS011;12053;48.878;9.632;2023-03-23T03:39:33;1.85;;;1.42;;
23745;SDS011;12053;48.878;9.632;2023-03-23T03:42:00;2.05;;;1.60;;
23745;SDS011;12053;48.878;9.632;2023-03-23T03:44:26;2.00;;;1.40;;
23745;SDS011;12053;48.878;9.632;2023-03-23T03:46:52;2.45;;;1.58;;
23745;SDS011;12053;48.878;9.632;2023-03-23T03:49:18;11.85;;;1.65;;
23745;SDS011;12053;48.878;9.632;2023-03-23T03:51:44;2.47;;;1.88;;
23745;SDS011;12053;48.878;9.632;2023-03-23T03:54:10;1.48;;;1.35;;
23745;SDS011;12053;48.878;9.632;2023-03-23T03:56:37;2.70;;;1.50;;
23745;SDS011;12053;48.878;9.632;2023-03-23T03:59:05;2.75;;;1.65;;
23745;SDS011;12053;48.878;9.632;2023-03-23T04:01:32;2.38;;;1.52;;
23745;SDS011;12053;48.878;9.632;2023-03-23T04:03:59;3.08;;;1.90;;
23745;SDS011;12053;48.878;9.632;2023-03-23T04:06:25;1.90;;;1.45;;
23745;SDS011;12053;48.878;9.632;2023-03-23T04:08:53;6.00;;;1.70;;
23745;SDS011;12053;48.878;9.632;2023-03-23T04:11:20;3.08;;;1.70;;
23745;SDS011;12053;48.878;9.632;2023-03-23T04:13:46;1.40;;;1.20;;
23745;SDS011;12053;48.878;9.632;2023-03-23T04:16:12;1.63;;;1.27;;
23745;SDS011;12053;48.878;9.632;2023-03-23T04:18:38;2.47;;;1.30;;
23745;SDS011;12053;48.878;9.632;2023-03-23T04:21:04;2.78;;;1.55;;
23745;SDS011;12053;48.878;9.632;2023-03-23T04:23:33;1.45;;;1.10;;
23745;SDS011;12053;48.878;9.632;2023-03-23T04:26:00;2.35;;;1.30;;
23745;SDS011;12053;48.878;9.632;2023-03-23T04:28:26;2.40;;;1.40;;
23745;SDS011;12053;48.878;9.632;2023-03-23T04:30:53;2.58;;;1.30;;
23745;SDS011;12053;48.878;9.632;2023-03-23T04:33:23;2.10;;;1.48;;
23745;SDS011;12053;48.878;9.632;2023-03-23T04:35:51;2.15;;;1.42;;
23745;SDS011;12053;48.878;9.632;2023-03-23T04:38:18;1.35;;;1.25;;
23745;SDS011;12053;48.878;9.632;2023-03-23T04:40:45;1.27;;;1.17;;
23745;SDS011;12053;48.878;9.632;2023-03-23T04:43:11;3.65;;;1.25;;
23745;SDS011;12053;48.878;9.632;2023-03-23T04:45:37;1.42;;;1.20;;
23745;SDS011;12053;48.878;9.632;2023-03-23T04:48:06;3.25;;;1.40;;
23745;SDS011;12053;48.878;9.632;2023-03-23T04:50:32;2.25;;;1.42;;
23745;SDS011;12053;48.878;9.632;2023-03-23T04:52:59;4.03;;;1.30;;
23745;SDS011;12053;48.878;9.632;2023-03-23T04:55:29;3.30;;;1.48;;
23745;SDS011;12053;48.878;9.632;2023-03-23T04:57:55;2.33;;;1.45;;
23745;SDS011;12053;48.878;9.632;2023-03-23T05:00:25;2.35;;;1.40;;
23745;SDS011;12053;48.878;9.632;2023-03-23T05:02:51;3.17;;;1.45;;
23745;SDS011;12053;48.878;9.632;2023-03-23T05:05:18;4.88;;;1.50;;
23745;SDS011;12053;48.878;9.632;2023-03-23T05:07:45;3.80;;;1.20;;
23745;SDS011;12053;48.878;9.632;2023-03-23T05:10:11;3.92;;;1.92;;
23745;SDS011;12053;48.878;9.632;2023-03-23T05:12:38;1.77;;;1.67;;
23745;SDS011;12053;48.878;9.632;2023-03-23T05:15:05;5.35;;;2.90;;
23745;SDS011;12053;48.878;9.632;2023-03-23T05:17:32;5.35;;;2.88;;
23745;SDS011;12053;48.878;9.632;2023-03-23T05:19:59;4.35;;;2.80;;
23745;SDS011;12053;48.878;9.632;2023-03-23T05:22:28;3.85;;;2.40;;
23745;SDS011;12053;48.878;9.632;2023-03-23T05:25:00;5.23;;;2.30;;
23745;SDS011;12053;48.878;9.632;2023-03-23T05:27:29;3.88;;;2.50;;
23745;SDS011;12053;48.878;9.632;2023-03-23T05:29:56;3.70;;;2.35;;
23745;SDS011;12053;48.878;9.632;2023-03-23T05:32:24;4.68;;;2.22;;
23745;SDS011;12053;48.878;9.632;2023-03-23T05:34:57;4.10;;;2.13;;
23745;SDS011;12053;48.878;9.632;2023-03-23T05:37:24;2.47;;;1.80;;
23745;SDS011;12053;48.878;9.632;2023-03-23T05:39:52;3.97;;;1.80;;
23745;SDS011;12053;48.878;9.632;2023-03-23T05:42:19;3.90;;;1.77;;
23745;SDS011;12053;48.878;9.632;2023-03-23T05:44:45;2.50;;;1.73;;
23745;SDS011;12053;48.878;9.632;2023-03-23T05:47:12;2.03;;;1.50;;
23745;SDS011;12053;48.878;9.632;2023-03-23T05:49:38;2.63;;;1.90;;
23745;SDS011;12053;48.878;9.632;2023-03-23T05:52:04;2.60;;;1.90;;
23745;SDS011;12053;48.878;9.632;2023-03-23T05:54:30;4.53;;;2.58;;
23745;SDS011;12053;48.878;9.632;2023-03-23T05:56:57;5.15;;;2.92;;
23745;SDS011;12053;48.878;9.632;2023-03-23T05:59:23;4.63;;;1.80;;
23745;SDS011;12053;48.878;9.632;2023-03-23T06:01:50;3.75;;;2.10;;
23745;SDS011;12053;48.878;9.632;2023-03-23T06:04:18;1.80;;;1.65;;
23745;SDS011;12053;48.878;9.632;2023-03-23T06:06:44;5.55;;;1.50;;
23745;SDS011;12053;48.878;9.632;2023-03-23T06:09:11;4.60;;;1.70;;
23745;SDS011;12053;48.878;9.632;2023-03-23T06:11:37;3.67;;;1.38;;
23745;SDS011;12053;48.878;9.632;2023-03-23T06:14:03;2.75;;;1.85;;
23745;SDS011;12053;48.878;9.632;2023-03-23T06:16:29;2.90;;;1.70;;
23745;SDS011;12053;48.878;9.632;2023-03-23T06:18:55;3.13;;;1.90;;
23745;SDS011;12053;48.878;9.632;2023-03-23T06:21:22;3.63;;;2.15;;
23745;SDS011;12053;48.878;9.632;2023-03-23T06:23:48;4.55;;;2.65;;
23745;SDS011;12053;48.878;9.632;2023-03-23T06:26:15;4.10;;;2.15;;
23745;SDS011;12053;48.878;9.632;2023-03-23T06:28:43;2.30;;;1.60;;
23745;SDS011;12053;48.878;9.632;2023-03-23T06:31:10;2.00;;;1.80;;
23745;SDS011;12053;48.878;9.632;2023-03-23T06:33:36;1.88;;;1.50;;
23745;SDS011;12053;48.878;9.632;2023-03-23T06:36:03;1.85;;;1.38;;
23745;SDS011;12053;48.878;9.632;2023-03-23T06:38:32;1.45;;;1.20;;
23745;SDS011;12053;48.878;9.632;2023-03-23T06:40:58;4.55;;;1.42;;
23745;SDS011;12053;48.878;9.632;2023-03-23T06:43:24;5.57;;;1.33;;
23745;SDS011;12053;48.878;9.632;2023-03-23T06:45:50;5.57;;;1.80;;
23745;SDS011;12053;48.878;9.632;2023-03-23T06:48:17;1.48;;;1.38;;
23745;SDS011;12053;48.878;9.632;2023-03-23T06:50:43;3.22;;;1.40;;
23745;SDS011;12053;48.878;9.632;2023-03-23T06:53:10;3.22;;;1.17;;
23745;SDS011;12053;48.878;9.632;2023-03-23T06:55:36;1.95;;;1.40;;
23745;SDS011;12053;48.878;9.632;2023-03-23T06:58:03;2.38;;;1.50;;
23745;SDS011;12053;48.878;9.632;2023-03-23T07:00:30;2.55;;;1.48;;
23745;SDS011;12053;48.878;9.632;2023-03-23T07:02:57;1.95;;;1.42;;
23745;SDS011;12053;48.878;9.632;2023-03-23T07:05:23;2.30;;;1.40;;
23745;SDS011;12053;48.878;9.632;2023-03-23T07:07:50;1.63;;;1.30;;
23745;SDS011;12053;48.878;9.632;2023-03-23T07:10:16;3.78;;;1.48;;
23745;SDS011;12053;48.878;9.632;2023-03-23T07:12:42;2.60;;;1.55;;
23745;SDS011;12053;48.878;9.632;2023-03-23T07:15:08;2.10;;;1.60;;
23745;SDS011;12053;48.878;9.632;2023-03-23T07:17:36;1.75;;;1.40;;
23745;SDS011;12053;48.878;9.632;2023-03-23T07:20:03;2.70;;;1.70;;
23745;SDS011;12053;48.878;9.632;2023-03-23T07:22:29;2.35;;;1.90;;
23745;SDS011;12053;48.878;9.632;2023-03-23T07:24:56;3.08;;;1.95;;
23745;SDS011;12053;48.878;9.632;2023-03-23T07:27:22;4.15;;;1.50;;
23745;SDS011;12053;48.878;9.632;2023-03-23T07:29:48;2.80;;;1.70;;
23745;SDS011;12053;48.878;9.632;2023-03-23T07:32:15;3.53;;;1.50;;
23745;SDS011;12053;48.878;9.632;2023-03-23T07:34:41;5.13;;;1.45;;
23745;SDS011;12053;48.878;9.632;2023-03-23T07:37:08;2.13;;;1.30;;
23745;SDS011;12053;48.878;9.632;2023-03-23T07:39:34;3.00;;;1.95;;
23745;SDS011;12053;48.878;9.632;2023-03-23T07:42:01;3.65;;;1.90;;
23745;SDS011;12053;48.878;9.632;2023-03-23T07:44:27;3.47;;;1.30;;
23745;SDS011;12053;48.878;9.632;2023-03-23T07:46:53;3.35;;;1.58;;
23745;SDS011;12053;48.878;9.632;2023-03-23T07:49:19;4.45;;;1.70;;
23745;SDS011;12053;48.878;9.632;2023-03-23T07:51:46;4.10;;;1.60;;
23745;SDS011;12053;48.878;9.632;2023-03-23T07:54:12;3.33;;;1.38;;
23745;SDS011;12053;48.878;9.632;2023-03-23T07:56:40;1.75;;;1.35;;
23745;SDS011;12053;48.878;9.632;2023-03-23T07:59:06;2.25;;;1.48;;
23745;SDS011;12053;48.878;9.632;2023-03-23T08:01:33;2.72;;;1.75;;
23745;SDS011;12053;48.878;9.632;2023-03-23T08:03:59;2.97;;;1.70;;
23745;SDS011;12053;48.878;9.632;2023-03-23T08:06:25;3.80;;;1.40;;
23745;SDS011;12053;48.878;9.632;2023-03-23T08:08:52;2.78;;;1.70;;
23745;SDS011;12053;48.878;9.632;2023-03-23T08:11:19;2.05;;;1.55;;
23745;SDS011;12053;48.878;9.632;2023-03-23T08:13:45;2.00;;;1.60;;
23745;SDS011;12053;48.878;9.632;2023-03-23T08:16:12;2.53;;;1.40;;
23745;SDS011;12053;48.878;9.632;2023-03-23T08:18:38;2.55;;;1.60;;
23745;SDS011;12053;48.878;9.632;2023-03-23T08:21:05;3.13;;;1.90;;
23745;SDS011;12053;48.878;9.632;2023-03-23T08:23:34;1.80;;;1.40;;
23745;SDS011;12053;48.878;9.632;2023-03-23T08:26:02;2.08;;;1.33;;
23745;SDS011;12053;48.878;9.632;2023-03-23T08:28:28;2.50;;;1.50;;
23745;SDS011;12053;48.878;9.632;2023-03-23T08:30:54;5.05;;;1.95;;
23745;SDS011;12053;48.878;9.632;2023-03-23T08:33:20;4.55;;;1.75;;
23745;SDS011;12053;48.878;9.632;2023-03-23T08:35:54;2.08;;;1.50;;
23745;SDS011;12053;48.878;9.632;2023-03-23T08:38:20;2.42;;;1.67;;
23745;SDS011;12053;48.878;9.632;2023-03-23T08:40:46;3.38;;;2.00;;
23745;SDS011;12053;48.878;9.632;2023-03-23T08:43:13;2.00;;;1.52;;
23745;SDS011;12053;48.878;9.632;2023-03-23T08:45:40;3.80;;;1.52;;
23745;SDS011;12053;48.878;9.632;2023-03-23T08:48:06;3.05;;;1.98;;
23745;SDS011;12053;48.878;9.632;2023-03-23T08:50:32;3.67;;;2.03;;
23745;SDS011;12053;48.878;9.632;2023-03-23T08:52:59;2.92;;;1.70;;
23745;SDS011;12053;48.878;9.632;2023-03-23T08:55:26;2.20;;;1.80;;
23745;SDS011;12053;48.878;9.632;2023-03-23T08:57:52;2.33;;;1.90;;
23745;SDS011;12053;48.878;9.632;2023-03-23T09:00:19;1.73;;;1.50;;
23745;SDS011;12053;48.878;9.632;2023-03-23T09:02:49;2.47;;;1.90;;
23745;SDS011;12053;48.878;9.632;2023-03-23T09:05:16;2.10;;;1.83;;
23745;SDS011;12053;48.878;9.632;2023-03-23T09:07:43;4.45;;;1.92;;
23745;SDS011;12053;48.878;9.632;2023-03-23T09:10:10;3.05;;;1.88;;
23745;SDS011;12053;48.878;9.632;2023-03-23T09:12:37;4.95;;;2.50;;
23745;SDS011;12053;48.878;9.632;2023-03-23T09:15:04;4.22;;;2.08;;
23745;SDS011;12053;48.878;9.632;2023-03-23T09:17:41;3.13;;;2.03;;
23745;SDS011;12053;48.878;9.632;2023-03-23T09:20:08;3.47;;;1.80;;
23745;SDS011;12053;48.878;9.632;2023-03-23T09:22:39;2.78;;;1.88;;
23745;SDS011;12053;48.878;9.632;2023-03-23T09:25:06;3.35;;;2.22;;
23745;SDS011;12053;48.878;9.632;2023-03-23T09:27:33;3.50;;;2.22;;
23745;SDS011;12053;48.878;9.632;2023-03-23T09:30:02;4.53;;;1.85;;
23745;SDS011;12053;48.878;9.632;2023-03-23T09:32:32;4.78;;;1.67;;
23745;SDS011;12053;48.878;9.632;2023-03-23T09:34:58;2.20;;;1.50;;
23745;SDS011;12053;48.878;9.632;2023-03-23T09:37:24;3.22;;;1.80;;
23745;SDS011;12053;48.878;9.632;2023-03-23T09:39:51;3.47;;;2.15;;
23745;SDS011;12053;48.878;9.632;2023-03-23T09:52:41;2.78;;;1.65;;
23745;SDS011;12053;48.878;9.632;2023-03-23T09:55:09;3.63;;;1.60;;
23745;SDS011;12053;48.878;9.632;2023-03-23T09:57:39;2.83;;;1.55;;
23745;SDS011;12053;48.878;9.632;2023-03-23T10:02:40;4.00;;;1.80;;
23745;SDS011;12053;48.878;9.632;2023-03-23T10:07:56;2.72;;;1.77;;
23745;SDS011;12053;48.878;9.632;2023-03-23T10:10:35;3.28;;;1.75;;
23745;SDS011;12053;48.878;9.632;2023-03-23T10:13:04;3.70;;;1.58;;
23745;SDS011;12053;48.878;9.632;2023-03-23T10:15:34;3.35;;;1.63;;
23745;SDS011;12053;48.878;9.632;2023-03-23T10:18:02;3.05;;;1.60;;
23745;SDS011;12053;48.878;9.632;2023-03-23T10:20:35;4.00;;;2.00;;
23745;SDS011;12053;48.878;9.632;2023-03-23T10:25:42;3.88;;;1.83;;
23745;SDS011;12053;48.878;9.632;2023-03-23T10:28:12;2.47;;;1.45;;
23745;SDS011;12053;48.878;9.632;2023-03-23T10:30:40;1.92;;;1.45;;
23745;SDS011;12053;48.878;9.632;2023-03-23T10:33:15;1.60;;;1.30;;
23745;SDS011;12053;48.878;9.632;2023-03-23T10:35:48;1.60;;;1.00;;
23745;SDS011;12053;48.878;9.632;2023-03-23T10:38:33;2.92;;;1.25;;
23745;SDS011;12053;48.878;9.632;2023-03-23T10:41:04;3.10;;;1.52;;
23745;SDS011;12053;48.878;9.632;2023-03-23T10:43:33;2.03;;;1.42;;
23745;SDS011;12053;48.878;9.632;2023-03-23T10:46:01;1.88;;;1.23;;
23745;SDS011;12053;48.878;9.632;2023-03-23T10:48:33;2.67;;;1.25;;
23745;SDS011;12053;48.878;9.632;2023-03-23T10:51:03;1.92;;;1.23;;
23745;SDS011;12053;48.878;9.632;2023-03-23T10:53:37;2.78;;;1.45;;
23745;SDS011;12053;48.878;9.632;2023-03-23T10:56:04;1.95;;;1.48;;
23745;SDS011;12053;48.878;9.632;2023-03-23T10:58:31;2.25;;;1.30;;
23745;SDS011;12053;48.878;9.632;2023-03-23T11:00:58;2.90;;;1.45;;
23745;SDS011;12053;48.878;9.632;2023-03-23T11:03:41;2.65;;;1.73;;
23745;SDS011;12053;48.878;9.632;2023-03-23T11:06:10;3.63;;;1.55;;
23745;SDS011;12053;48.878;9.632;2023-03-23T11:08:54;2.28;;;1.63;;
23745;SDS011;12053;48.878;9.632;2023-03-23T11:11:28;2.83;;;1.60;;
23745;SDS011;12053;48.878;9.632;2023-03-23T11:13:59;3.45;;;1.50;;
23745;SDS011;12053;48.878;9.632;2023-03-23T11:16:30;2.50;;;1.40;;
23745;SDS011;12053;48.878;9.632;2023-03-23T11:18:59;2.03;;;1.70;;
23745;SDS011;12053;48.878;9.632;2023-03-23T11:21:26;3.15;;;2.08;;
23745;SDS011;12053;48.878;9.632;2023-03-23T11:23:54;1.92;;;1.60;;
23745;SDS011;12053;48.878;9.632;2023-03-23T11:26:29;2.42;;;1.63;;
23745;SDS011;12053;48.878;9.632;2023-03-23T11:31:37;3.95;;;1.73;;
23745;SDS011;12053;48.878;9.632;2023-03-23T11:34:15;2.33;;;1.85;;
23745;SDS011;12053;48.878;9.632;2023-03-23T11:36:43;2.58;;;1.65;;
23745;SDS011;12053;48.878;9.632;2023-03-23T11:39:23;3.15;;;1.90;;
23745;SDS011;12053;48.878;9.632;2023-03-23T11:41:49;2.33;;;1.77;;
23745;SDS011;12053;48.878;9.632;2023-03-23T11:44:15;3.05;;;1.70;;
23745;SDS011;12053;48.878;9.632;2023-03-23T11:51:59;2.65;;;2.13;;
23745;SDS011;12053;48.878;9.632;2023-03-23T11:54:34;2.90;;;1.70;;
23745;SDS011;12053;48.878;9.632;2023-03-23T11:57:06;2.13;;;1.90;;
23745;SDS011;12053;48.878;9.632;2023-03-23T11:59:33;3.40;;;1.42;;
23745;SDS011;12053;48.878;9.632;2023-03-23T12:07:14;3.33;;;1.70;;
23745;SDS011;12053;48.878;9.632;2023-03-23T12:12:24;4.53;;;1.63;;
23745;SDS011;12053;48.878;9.632;2023-03-23T12:17:37;2.75;;;1.52;;
23745;SDS011;12053;48.878;9.632;2023-03-23T12:25:59;3.17;;;1.63;;
23745;SDS011;12053;48.878;9.632;2023-03-23T12:28:34;2.58;;;1.77;;
23745;SDS011;12053;48.878;9.632;2023-03-23T12:36:27;1.90;;;1.73;;
23745;SDS011;12053;48.878;9.632;2023-03-23T12:44:13;4.43;;;2.10;;
23745;SDS011;12053;48.878;9.632;2023-03-23T12:49:27;3.35;;;2.00;;
23745;SDS011;12053;48.878;9.632;2023-03-23T12:54:29;3.13;;;2.80;;
23745;SDS011;12053;48.878;9.632;2023-03-23T12:59:41;8.27;;;3.35;;
23745;SDS011;12053;48.878;9.632;2023-03-23T13:02:21;4.50;;;2.88;;
23745;SDS011;12053;48.878;9.632;2023-03-23T13:04:54;3.85;;;2.60;;
23745;SDS011;12053;48.878;9.632;2023-03-23T13:07:39;2.90;;;2.60;;
23745;SDS011;12053;48.878;9.632;2023-03-23T13:10:21;4.35;;;2.17;;
23745;SDS011;12053;48.878;9.632;2023-03-23T13:12:48;4.20;;;2.50;;
23745;SDS011;12053;48.878;9.632;2023-03-23T13:15:18;2.50;;;2.30;;
23745;SDS011;12053;48.878;9.632;2023-03-23T13:17:51;4.60;;;2.13;;
23745;SDS011;12053;48.878;9.632;2023-03-23T13:28:26;5.28;;;2.60;;
23745;SDS011;12053;48.878;9.632;2023-03-23T13:30:54;3.05;;;1.88;;
23745;SDS011;12053;48.878;9.632;2023-03-23T13:33:21;3.75;;;2.88;;
23745;SDS011;12053;48.878;9.632;2023-03-23T13:35:48;4.50;;;2.55;;
23745;SDS011;12053;48.878;9.632;2023-03-23T13:40:45;2.70;;;2.15;;
23745;SDS011;12053;48.878;9.632;2023-03-23T13:43:11;3.72;;;2.28;;
23745;SDS011;12053;48.878;9.632;2023-03-23T13:45:45;5.03;;;2.15;;
23745;SDS011;12053;48.878;9.632;2023-03-23T13:53:14;2.50;;;1.70;;
23745;SDS011;12053;48.878;9.632;2023-03-23T13:55:47;4.72;;;1.80;;
23745;SDS011;12053;48.878;9.632;2023-03-23T13:58:21;3.13;;;1.67;;
23745;SDS011;12053;48.878;9.632;2023-03-23T14:00:49;2.85;;;1.98;;
23745;SDS011;12053;48.878;9.632;2023-03-23T14:03:26;3.20;;;1.90;;
23745;SDS011;12053;48.878;9.632;2023-03-23T14:20:29;3.83;;;2.22;;
23745;SDS011;12053;48.878;9.632;2023-03-23T14:26:25;5.50;;;2.08;;
23745;SDS011;12053;48.878;9.632;2023-03-23T14:28:52;4.60;;;1.83;;
23745;SDS011;12053;48.878;9.632;2023-03-23T14:31:20;2.60;;;2.00;;
23745;SDS011;12053;48.878;9.632;2023-03-23T14:33:48;4.20;;;1.92;;
23745;SDS011;12053;48.878;9.632;2023-03-23T14:36:25;2.72;;;1.90;;
23745;SDS011;12053;48.878;9.632;2023-03-23T14:41:28;4.15;;;1.85;;
23745;SDS011;12053;48.878;9.632;2023-03-23T14:43:55;3.78;;;1.85;;
23745;SDS011;12053;48.878;9.632;2023-03-23T14:46:21;5.47;;;2.28;;
23745;SDS011;12053;48.878;9.632;2023-03-23T14:48:47;3.65;;;1.77;;
23745;SDS011;12053;48.878;9.632;2023-03-23T14:51:18;4.50;;;2.40;;
23745;SDS011;12053;48.878;9.632;2023-03-23T14:53:45;3.13;;;2.13;;
23745;SDS011;12053;48.878;9.632;2023-03-23T14:56:16;3.28;;;1.83;;
23745;SDS011;12053;48.878;9.632;2023-03-23T14:58:43;6.07;;;2.33;;
23745;SDS011;12053;48.878;9.632;2023-03-23T15:01:10;2.30;;;1.77;;
23745;SDS011;12053;48.878;9.632;2023-03-23T15:03:42;3.20;;;1.80;;
23745;SDS011;12053;48.878;9.632;2023-03-23T15:06:16;4.88;;;2.55;;
23745;SDS011;12053;48.878;9.632;2023-03-23T15:08:43;3.72;;;2.75;;
23745;SDS011;12053;48.878;9.632;2023-03-23T15:11:21;6.25;;;2.13;;
23745;SDS011;12053;48.878;9.632;2023-03-23T15:13:53;5.50;;;2.35;;
23745;SDS011;12053;48.878;9.632;2023-03-23T15:16:25;3.85;;;1.90;;
23745;SDS011;12053;48.878;9.632;2023-03-23T15:18:55;3.97;;;1.80;;
23745;SDS011;12053;48.878;9.632;2023-03-23T15:21:29;3.53;;;1.77;;
23745;SDS011;12053;48.878;9.632;2023-03-23T15:23:56;3.58;;;2.08;;
23745;SDS011;12053;48.878;9.632;2023-03-23T15:26:27;2.63;;;2.00;;
23745;SDS011;12053;48.878;9.632;2023-03-23T15:29:05;4.30;;;2.22;;
23745;SDS011;12053;48.878;9.632;2023-03-23T15:31:39;5.72;;;2.30;;
23745;SDS011;12053;48.878;9.632;2023-03-23T15:34:05;2.38;;;1.83;;
23745;SDS011;12053;48.878;9.632;2023-03-23T15:36:33;3.83;;;2.20;;
23745;SDS011;12053;48.878;9.632;2023-03-23T15:39:01;4.75;;;2.28;;
23745;SDS011;12053;48.878;9.632;2023-03-23T15:41:28;2.75;;;2.28;;
23745;SDS011;12053;48.878;9.632;2023-03-23T15:43:57;3.40;;;2.25;;
23745;SDS011;12053;48.878;9.632;2023-03-23T15:46:24;4.30;;;2.08;;
23745;SDS011;12053;48.878;9.632;2023-03-23T15:49:04;3.85;;;1.90;;
23745;SDS011;12053;48.878;9.632;2023-03-23T15:51:34;2.28;;;1.63;;
23745;SDS011;12053;48.878;9.632;2023-03-23T15:54:02;2.33;;;2.13;;
23745;SDS011;12053;48.878;9.632;2023-03-23T15:56:28;2.55;;;1.80;;
23745;SDS011;12053;48.878;9.632;2023-03-23T15:58:56;2.30;;;1.70;;
23745;SDS011;12053;48.878;9.632;2023-03-23T16:01:27;3.10;;;1.95;;
23745;SDS011;12053;48.878;9.632;2023-03-23T16:03:58;4.78;;;1.90;;
23745;SDS011;12053;48.878;9.632;2023-03-23T16:06:27;3.80;;;1.80;;
23745;SDS011;12053;48.878;9.632;2023-03-23T16:08:56;4.28;;;2.03;;
23745;SDS011;12053;48.878;9.632;2023-03-23T16:11:25;4.22;;;1.80;;
23745;SDS011;12053;48.878;9.632;2023-03-23T16:13:52;4.10;;;2.10;;
23745;SDS011;12053;48.878;9.632;2023-03-23T16:16:27;3.30;;;2.15;;
23745;SDS011;12053;48.878;9.632;2023-03-23T16:18:55;2.83;;;1.80;;
23745;SDS011;12053;48.878;9.632;2023-03-23T16:21:22;3.85;;;2.13;;
23745;SDS011;12053;48.878;9.632;2023-03-23T16:23:49;3.33;;;1.83;;
23745;SDS011;12053;48.878;9.632;2023-03-23T16:26:17;2.60;;;1.80;;
23745;SDS011;12053;48.878;9.632;2023-03-23T16:28:44;3.92;;;2.80;;
23745;SDS011;12053;48.878;9.632;2023-03-23T16:31:11;2.00;;;1.60;;
23745;SDS011;12053;48.878;9.632;2023-03-23T16:33:38;2.53;;;2.08;;
23745;SDS011;12053;48.878;9.632;2023-03-23T16:36:06;2.03;;;1.80;;
23745;SDS011;12053;48.878;9.632;2023-03-23T16:38:33;2.92;;;2.10;;
23745;SDS011;12053;48.878;9.632;2023-03-23T16:41:15;5.45;;;4.20;;
23745;SDS011;12053;48.878;9.632;2023-03-23T16:43:42;2.83;;;1.95;;
23745;SDS011;12053;48.878;9.632;2023-03-23T16:46:10;3.15;;;2.75;;
23745;SDS011;12053;48.878;9.632;2023-03-23T16:48:39;3.60;;;2.28;;
23745;SDS011;12053;48.878;9.632;2023-03-23T16:51:06;3.75;;;1.77;;
23745;SDS011;12053;48.878;9.632;2023-03-23T16:53:33;3.92;;;1.58;;
23745;SDS011;12053;48.878;9.632;2023-03-23T16:56:01;2.45;;;1.73;;
23745;SDS011;12053;48.878;9.632;2023-03-23T16:58:28;2.95;;;1.67;;